CHIUDI BANNER

Seguici su twitter Seguici su facebook
LIVE Streaming HD
Get Adobe Flash player
Dati meteo stazione (refresh automatico ogni minuto)
Latina(LT) VENTO: VELOCITÀ   PIOGGIA: QTA GIORNO TEMPERATURA: ATTUALE
SPOT: Latina lido
(Hotel Tirreno) Posizione su Googlemap: Latitudine 41.41 Longitudine 12.84
RAFFICA MASSIMA: QTA MENSILE: MASSIMA:
VELOCITÀ MEDIA: QTA ANNUALE: MINIMA:
DIREZIONE: UMIDITÀ: WIND CHILL:
TIPO: DEW POINT:
BEAUFORT: PRESSIONE:
I nostri partner
Latina(LT) nelle ultime ore
Applica filtri in visualizzazione Intervallo delle letture nelle ultime

Ora Direzione Vento Velocita' Vento Media Vento Raffica Max. Temperatura Wind Chill Pioggia Pressione
01:56:16240 °(WSW)20.2 Kts22.1 Kts26.4 Kts22.9 °C17.6 °C0.2 mm1006.2 Hpa
01:51:15246 °(WSW)22.9 Kts21.2 Kts26.4 Kts22.7 °C17.6 °C0.2 mm1006.2 Hpa
01:45:30254 °(WSW)22.9 Kts20.2 Kts26.4 Kts22.9 °C17.8 °C0.2 mm1006.4 Hpa
01:39:12238 °(WSW)20.2 Kts20.2 Kts26.4 Kts22.9 °C17.8 °C0.2 mm1006.5 Hpa
01:36:24237 °(WSW)22.1 Kts20.2 Kts26.4 Kts22.7 °C17.7 °C0.2 mm1006.5 Hpa
01:31:22251 °(WSW)20.2 Kts21.2 Kts26.4 Kts22.7 °C17.5 °C0.2 mm1006.5 Hpa
01:26:22242 °(WSW)21.2 Kts22.1 Kts26.4 Kts22.7 °C17.6 °C0.2 mm1006.7 Hpa
01:21:19240 °(WSW)18.6 Kts22.1 Kts26.4 Kts22.9 °C17.6 °C0.2 mm1006.7 Hpa
01:16:20244 °(WSW)22.9 Kts19.5 Kts26.4 Kts22.8 °C17.7 °C0.2 mm1006.7 Hpa
01:11:19239 °(WSW)20.2 Kts17.7 Kts23.7 Kts22.6 °C17.5 °C0 mm1006.7 Hpa
01:06:19235 °(SW)9.9 Kts17.7 Kts22.9 Kts23.1 °C18.4 °C0 mm1007.1 Hpa
01:01:18200 °(SSW)20.2 Kts17.7 Kts22.9 Kts23.1 °C18.4 °C0 mm1007.1 Hpa
00:55:53198 °(SSW)19.5 Kts16.9 Kts21.2 Kts23.1 °C18.4 °C0 mm1007.2 Hpa
00:50:55192 °(SSW)16.9 Kts16 Kts21.2 Kts23.1 °C18.5 °C0 mm1007.4 Hpa
00:46:27206 °(SSW)16 Kts16 Kts21.2 Kts22.9 °C18.2 °C0 mm1007.5 Hpa
00:41:27199 °(SSW)16 Kts16 Kts21.2 Kts22.9 °C18.2 °C0 mm1007.4 Hpa
00:34:55207 °(SSW)16 Kts16 Kts21.2 Kts23 °C18.4 °C0 mm1007.6 Hpa
00:30:46200 °(SSW)17.7 Kts16 Kts21.2 Kts23.1 °C18.5 °C0 mm1007.7 Hpa
00:26:14200 °(SSW)15.1 Kts16 Kts19.5 Kts23 °C18.4 °C0 mm1007.7 Hpa
00:21:10214 °(SW)16 Kts14.2 Kts18.6 Kts23.1 °C18.7 °C0 mm1008 Hpa
00:16:09215 °(SW)14.2 Kts14.2 Kts18.6 Kts23.1 °C18.7 °C0 mm1008.2 Hpa
00:11:01205 °(SSW)13.4 Kts14.2 Kts17.7 Kts23.1 °C18.7 °C0 mm1008.3 Hpa
00:04:55205 °(SSW)14.2 Kts15.1 Kts16.9 Kts23.1 °C18.6 °C0 mm1008.2 Hpa
00:00:56195 °(SSW)14.2 Kts15.1 Kts16.9 Kts23 °C18.5 °C0 mm1008.2 Hpa